Airports France Nice-Côte d'Azur Airport

Nice-Côte d'Azur Airport (LFMN / NCE)

Facts about Nice-Côte d'Azur Airport

Name Nice-Côte d'Azur Airport
City Nice
Country France
ICAO code LFMN
IATA code NCE
Elevation 3.6576 meters (12 feet)

Weather

METAR

Metar data retrieved Saturday, 20 July 2024 at 00:25 UTC (16 minutes ago)

LFMN 200000Z 36003KT 9999 FEW009 25/18 Q1011 NOSIG

Live traffic

Navigraph Charts (account required)